Time;durP1;ratioP1;P1;durP2;ratioP2;P2;SDS_P1;SDS_P2;PMS_P1;PMS_P2;Temp;Humidity;BMP_temperature;BMP_pressure;BME280_temperature;BME280_humidity;BME280_pressure;Samples;Min_cycle;Max_cycle;Signal;HPM_P1;HPM_P2
2022/11/08 00:01:35;;;;;;;;;;;;;;;12.05;63.39;99164.47;4484944;32;19998;-82
2022/11/08 00:04:02;;;;;;;;;;;;;;;12.08;63.22;99164.31;4496303;31;19989;-83
2022/11/08 00:14:39;;;;;;;;;;;;;;;12.03;62.98;99171.63;4487598;31;20655;-83
2022/11/08 00:17:04;;;;;;;;;;;;;;;12.00;63.16;99162.94;4495919;31;19991;-83
2022/11/08 00:19:29;;;;;;;;;;;;;;;12.05;63.06;99169.75;4493247;31;20280;-83
2022/11/08 00:21:54;;;;;;;;;;;;;;;12.04;63.04;99168.91;4490037;31;20270;-83
2022/11/08 00:24:20;;;;;;;;;;;;;;;12.06;62.97;99169.66;4497864;31;20027;-84
2022/11/08 00:26:45;;;;;;;;;;;;;;;11.93;63.38;99180.03;4487296;31;20006;-83
2022/11/08 00:29:10;;;;;;;;;;;;;;;11.99;63.15;99176.22;4496139;31;20262;-83
2022/11/08 00:31:36;;;;;;;;;;;;;;;11.92;63.24;99173.06;4493395;31;19990;-83
2022/11/08 00:34:01;;;;;;;;;;;;;;;11.87;63.25;99174.22;4490035;31;19971;-83
2022/11/08 00:36:26;;;;;;;;;;;;;;;11.91;63.25;99165.22;4497801;31;19983;-83
2022/11/08 00:38:51;;;;;;;;;;;;;;;11.63;64.24;99169.31;4487463;31;20294;-82
2022/11/08 00:41:17;;;;;;;;;;;;;;;11.84;63.49;99166.44;4495165;31;19999;-85
2022/11/08 00:43:42;;;;;;;;;;;;;;;11.77;63.49;99173.84;4493498;31;19972;-84
2022/11/08 00:46:07;;;;;;;;;;;;;;;11.84;63.32;99164.69;4488210;31;20019;-85
2022/11/08 00:48:32;;;;;;;;;;;;;;;11.84;63.25;99166.44;4497360;31;19986;-84
2022/11/08 00:51:01;;;;;;;;;;;;;;;11.74;63.58;99158.16;4489166;31;20358;-83
2022/11/08 00:53:27;;;;;;;;;;;;;;;11.70;63.72;99160.13;4493328;31;19986;-85
2022/11/08 00:55:59;;;;;;;;;;;;;;;11.70;63.85;99160.13;4495431;31;20015;-85
2022/11/08 00:58:24;;;;;;;;;;;;;;;11.76;63.59;99158.94;4473484;31;19983;-84
2022/11/08 01:00:50;;;;;;;;;;;;;;;11.75;63.60;99157.25;4496811;31;19994;-85
2022/11/08 01:03:18;;;;;;;;;;;;;;;11.56;64.38;99154.72;4490317;31;20018;-84
2022/11/08 01:05:43;;;;;;;;;;;;;;;11.65;64.06;99151.59;4477323;32;19996;-85
2022/11/08 01:08:09;;;;;;;;;;;;;;;11.57;64.39;99154.66;4496537;31;20065;-85
2022/11/08 01:10:34;;;;;;;;;;;;;;;11.67;63.92;99164.72;4487313;31;20002;-84
2022/11/08 01:12:59;;;;;;;;;;;;;;;11.58;64.07;99155.50;4495575;31;20008;-84
2022/11/08 01:15:25;;;;;;;;;;;;;;;11.56;64.01;99158.22;4490526;31;19983;-84
2022/11/08 01:17:50;;;;;;;;;;;;;;;11.48;64.41;99163.03;4476880;32;20018;-85
2022/11/08 01:20:15;;;;;;;;;;;;;;;11.52;64.35;99166.38;4496483;31;20012;-84
2022/11/08 01:22:41;;;;;;;;;;;;;;;11.59;64.17;99159.84;4486909;31;20757;-85
2022/11/08 01:25:07;;;;;;;;;;;;;;;11.63;64.04;99152.59;4497120;31;19988;-85
2022/11/08 01:27:32;;;;;;;;;;;;;;;11.64;64.03;99152.53;4502783;31;19995;-84
2022/11/08 01:29:57;;;;;;;;;;;;;;;11.51;64.51;99151.47;4502602;31;19979;-84
2022/11/08 01:32:23;;;;;;;;;;;;;;;11.60;64.23;99157.13;4502624;31;19963;-84
2022/11/08 01:34:48;;;;;;;;;;;;;;;11.58;64.31;99151.06;4502447;31;20131;-85
2022/11/08 01:37:13;;;;;;;;;;;;;;;11.61;64.14;99155.34;4502493;31;20308;-87
2022/11/08 01:39:39;;;;;;;;;;;;;;;11.63;64.13;99153.47;4502535;31;19979;-84
2022/11/08 01:42:04;;;;;;;;;;;;;;;11.61;64.15;99147.44;4502329;31;20311;-83
2022/11/08 01:44:29;;;;;;;;;;;;;;;11.65;63.99;99146.34;4502471;31;20243;-82
2022/11/08 01:46:54;;;;;;;;;;;;;;;11.63;63.95;99144.69;4502561;31;19990;-82
2022/11/08 01:49:22;;;;;;;;;;;;;;;11.65;63.83;99146.34;4502383;31;19971;-82
2022/11/08 01:51:56;;;;;;;;;;;;;;;11.62;63.84;99143.84;4502358;31;19964;-82
2022/11/08 01:54:30;;;;;;;;;;;;;;;11.63;63.79;99148.19;4502374;31;20334;-83
2022/11/08 01:56:55;;;;;;;;;;;;;;;11.58;63.93;99140.50;4502436;31;20338;-83
2022/11/08 01:59:20;;;;;;;;;;;;;;;11.58;63.90;99147.59;4487736;31;20049;-83
2022/11/08 02:01:46;;;;;;;;;;;;;;;11.56;63.93;99146.81;4488099;31;19963;-83
2022/11/08 02:04:11;;;;;;;;;;;;;;;11.58;63.87;99137.88;4502246;31;19972;-83
2022/11/08 02:06:36;;;;;;;;;;;;;;;11.56;63.85;99139.75;4503204;31;19982;-83
2022/11/08 02:09:02;;;;;;;;;;;;;;;11.40;64.55;99133.59;4504313;31;19971;-83
2022/11/08 02:11:27;;;;;;;;;;;;;;;11.51;64.11;99133.00;4504143;31;19967;-83
2022/11/08 02:13:53;;;;;;;;;;;;;;;11.40;64.39;99133.59;4489854;31;19979;-83
2022/11/08 02:16:18;;;;;;;;;;;;;;;11.43;64.33;99129.91;4489798;31;20058;-83
2022/11/08 02:18:43;;;;;;;;;;;;;;;11.47;64.15;99128.81;4504037;31;19968;-83
2022/11/08 02:21:11;;;;;;;;;;;;;;;11.48;64.01;99134.03;4489850;31;19996;-83
2022/11/08 02:23:42;;;;;;;;;;;;;;;11.51;63.84;99133.00;4504135;31;20547;-84
2022/11/08 02:26:08;;;;;;;;;;;;;;;11.51;63.80;99135.62;4504136;31;19990;-83
2022/11/08 02:28:40;;;;;;;;;;;;;;;11.45;63.90;99128.91;4489838;31;19971;-83
2022/11/08 02:31:09;;;;;;;;;;;;;;;11.46;63.82;99132.41;4489745;31;19982;-83
2022/11/08 02:33:34;;;;;;;;;;;;;;;11.46;63.76;99133.25;4504063;31;19999;-82
2022/11/08 02:36:00;;;;;;;;;;;;;;;11.46;63.65;99135.06;4503819;31;20304;-82
2022/11/08 02:38:26;;;;;;;;;;;;;;;11.41;63.69;99130.88;4504070;31;19994;-82
2022/11/08 02:40:52;;;;;;;;;;;;;;;11.43;63.66;99135.19;4504010;31;20303;-83
2022/11/08 02:43:17;;;;;;;;;;;;;;;11.32;63.96;99136.62;4489830;31;20342;-83
2022/11/08 02:45:43;;;;;;;;;;;;;;;11.38;63.78;99132.81;4504022;31;19979;-84
2022/11/08 02:48:08;;;;;;;;;;;;;;;11.29;63.92;99134.13;4504064;31;19982;-83
2022/11/08 02:50:34;;;;;;;;;;;;;;;10.79;65.48;99145.47;4503969;31;19979;-83
2022/11/08 02:52:59;;;;;;;;;;;;;;;11.17;64.21;99143.53;4503954;31;19983;-83
2022/11/08 02:55:24;;;;;;;;;;;;;;;11.18;63.96;99136.47;4503867;31;19971;-83
2022/11/08 02:57:49;;;;;;;;;;;;;;;10.71;65.27;99145.00;4503898;31;20307;-83
2022/11/08 03:00:15;;;;;;;;;;;;;;;11.07;64.20;99134.41;4503888;31;19982;-83
2022/11/08 03:02:40;;;;;;;;;;;;;;;11.10;64.03;99136.84;4489522;31;19988;-83
2022/11/08 03:05:06;;;;;;;;;;;;;;;10.73;64.83;99143.97;4503869;31;20099;-83
2022/11/08 03:07:31;;;;;;;;;;;;;;;10.85;64.42;99141.66;4503963;31;19967;-83
2022/11/08 03:09:56;;;;;;;;;;;;;;;10.97;63.91;99138.41;4503787;31;20380;-83
2022/11/08 03:12:21;;;;;;;;;;;;;;;11.02;63.60;99142.50;4503641;31;19971;-83
2022/11/08 03:14:47;;;;;;;;;;;;;;;11.05;63.44;99143.28;4503730;31;20023;-83
2022/11/08 03:17:12;;;;;;;;;;;;;;;11.07;63.26;99142.31;4503222;31;20036;-83
2022/11/08 03:19:37;;;;;;;;;;;;;;;11.05;63.20;99144.16;4503476;31;19986;-83
2022/11/08 03:22:02;;;;;;;;;;;;;;;11.05;63.11;99145.94;4503850;31;19979;-81
2022/11/08 03:24:28;;;;;;;;;;;;;;;11.04;63.13;99150.34;4503791;31;19994;-83
2022/11/08 03:26:53;;;;;;;;;;;;;;;11.02;63.13;99147.78;4503779;31;19971;-83
2022/11/08 03:29:18;;;;;;;;;;;;;;;11.02;63.23;99142.50;4503559;31;19995;-83
2022/11/08 03:31:43;;;;;;;;;;;;;;;11.02;63.33;99146.94;4503681;31;20259;-83
2022/11/08 03:34:09;;;;;;;;;;;;;;;11.04;63.33;99146.87;4503797;31;20007;-83
2022/11/08 03:36:34;;;;;;;;;;;;;;;11.06;63.28;99148.50;4503472;31;19967;-83
2022/11/08 03:39:00;;;;;;;;;;;;;;;10.91;63.79;99146.63;4503748;31;19990;-83
2022/11/08 03:41:25;;;;;;;;;;;;;;;10.97;63.70;99148.94;4503619;31;20264;-83
2022/11/08 03:43:50;;;;;;;;;;;;;;;11.00;63.72;99146.19;4489289;31;20019;-83
2022/11/08 03:46:15;;;;;;;;;;;;;;;11.01;63.79;99151.38;4503521;31;19971;-83
2022/11/08 03:48:41;;;;;;;;;;;;;;;11.04;63.70;99150.34;4503615;31;20011;-84
2022/11/08 03:51:06;;;;;;;;;;;;;;;10.93;64.17;99148.28;4489290;31;19996;-83
2022/11/08 03:53:31;;;;;;;;;;;;;;;10.99;64.02;99142.69;4503534;31;19975;-83
2022/11/08 03:56:00;;;;;;;;;;;;;;;11.04;63.92;99142.44;4503440;31;19967;-84
2022/11/08 03:58:25;;;;;;;;;;;;;;;11.05;63.97;99148.56;4503579;31;20024;-84
2022/11/08 04:00:50;;;;;;;;;;;;;;;10.97;64.13;99149.81;4503513;31;20315;-84
2022/11/08 04:03:16;;;;;;;;;;;;;;;11.03;64.10;99146.03;4489079;31;19995;-84
2022/11/08 04:05:41;;;;;;;;;;;;;;;11.07;63.97;99147.56;4503396;31;20224;-84
2022/11/08 04:08:06;;;;;;;;;;;;;;;11.07;63.88;99138.78;4503494;31;19967;-84
2022/11/08 04:10:31;;;;;;;;;;;;;;;11.07;63.72;99134.41;4489101;31;19979;-84
2022/11/08 04:15:44;;;;;;;;;;;;;;;10.98;63.84;99143.59;4503413;31;20397;-84
2022/11/08 04:23:37;;;;;;;;;;;;;;;10.98;63.11;99142.75;4503538;31;19998;-83
2022/11/08 04:26:06;;;;;;;;;;;;;;;10.88;63.01;99142.38;4503242;31;20307;-83
2022/11/08 04:28:32;;;;;;;;;;;;;;;10.88;62.90;99136.25;4488599;31;19968;-84
2022/11/08 04:30:58;;;;;;;;;;;;;;;10.88;62.93;99138.91;4503264;31;20043;-84
2022/11/08 04:33:24;;;;;;;;;;;;;;;10.73;63.30;99132.59;4503291;31;19987;-82
2022/11/08 04:35:49;;;;;;;;;;;;;;;10.79;63.14;99125.22;4502921;31;19990;-83
2022/11/08 04:38:15;;;;;;;;;;;;;;;10.83;63.09;99128.56;4503198;31;19963;-83
2022/11/08 04:40:40;;;;;;;;;;;;;;;10.80;63.23;99131.38;4488955;31;19975;-82
2022/11/08 04:43:06;;;;;;;;;;;;;;;10.81;63.27;99126.00;4503279;31;19968;-82
2022/11/08 04:45:31;;;;;;;;;;;;;;;10.81;63.36;99128.62;4503158;31;20017;-82
2022/11/08 04:47:56;;;;;;;;;;;;;;;10.82;63.35;99126.88;4488899;31;20243;-82
2022/11/08 04:50:21;;;;;;;;;;;;;;;10.78;63.56;99123.53;4503198;31;19983;-82
2022/11/08 04:52:52;;;;;;;;;;;;;;;10.80;63.67;99128.75;4503202;31;19979;-82
2022/11/08 04:55:18;;;;;;;;;;;;;;;10.82;63.74;99126.88;4503027;31;19972;-82
2022/11/08 04:57:43;;;;;;;;;;;;;;;10.82;63.82;99117.19;4503061;31;19964;-83
2022/11/08 05:00:09;;;;;;;;;;;;;;;10.86;63.80;99125.78;4488582;31;20025;-82
2022/11/08 05:02:34;;;;;;;;;;;;;;;10.88;63.74;99125.72;4503106;31;20010;-82
2022/11/08 05:04:59;;;;;;;;;;;;;;;10.87;63.47;99121.34;4503055;31;20016;-83
2022/11/08 05:07:25;;;;;;;;;;;;;;;10.77;63.49;99127.09;4502959;31;19982;-83
2022/11/08 05:09:50;;;;;;;;;;;;;;;10.81;63.40;99119.88;4502897;31;19983;-83
2022/11/08 05:12:15;;;;;;;;;;;;;;;10.84;63.03;99130.28;4503043;31;20229;-83
2022/11/08 05:14:40;;;;;;;;;;;;;;;10.78;62.77;99122.69;4502854;31;19987;-82
2022/11/08 05:17:06;;;;;;;;;;;;;;;10.76;62.39;99122.75;4502972;31;19971;-83
2022/11/08 05:24:59;;;;;;;;;;;;;;;10.69;61.75;99128.41;4503000;31;20417;-83
2022/11/08 05:27:24;;;;;;;;;;;;;;;10.62;61.79;99133.13;4502711;31;19980;-83
2022/11/08 05:29:49;;;;;;;;;;;;;;;10.60;61.51;99141.13;4502737;31;19976;-83
2022/11/08 05:32:14;;;;;;;;;;;;;;;10.60;61.26;99137.59;4502697;31;19967;-82
2022/11/08 05:34:40;;;;;;;;;;;;;;;10.58;61.20;99136.84;4502270;31;19979;-82
2022/11/08 05:37:05;;;;;;;;;;;;;;;10.51;61.11;99143.34;4488361;31;19971;-82
2022/11/08 05:39:30;;;;;;;;;;;;;;;10.46;60.82;99146.19;4502550;31;19983;-82
2022/11/08 05:41:55;;;;;;;;;;;;;;;10.33;60.62;99147.69;4501656;31;20232;-82
2022/11/08 05:44:21;;;;;;;;;;;;;;;10.28;60.68;99150.53;4502508;31;20003;-82
2022/11/08 05:46:46;;;;;;;;;;;;;;;10.28;60.71;99150.53;4502581;31;19967;-83
2022/11/08 05:49:11;;;;;;;;;;;;;;;10.21;60.87;99149.97;4502439;31;19971;-83
2022/11/08 05:51:36;;;;;;;;;;;;;;;10.19;60.80;99154.44;4488138;31;20003;-83
2022/11/08 05:54:02;;;;;;;;;;;;;;;10.23;60.64;99158.62;4502394;31;20016;-83
2022/11/08 05:56:27;;;;;;;;;;;;;;;10.24;60.60;99156.88;4487793;31;19983;-83
2022/11/08 05:58:52;;;;;;;;;;;;;;;10.14;61.01;99151.19;4502304;31;20269;-83
2022/11/08 06:01:18;;;;;;;;;;;;;;;10.22;60.84;99156.94;4502346;31;19993;-82
2022/11/08 06:03:44;;;;;;;;;;;;;;;10.19;61.18;99154.44;4487985;31;19975;-83
2022/11/08 06:06:09;;;;;;;;;;;;;;;10.30;60.96;99153.09;4502137;31;19964;-84
2022/11/08 06:08:35;;;;;;;;;;;;;;;10.38;60.66;99158.88;4502022;31;20303;-83
2022/11/08 06:11:01;;;;;;;;;;;;;;;10.37;60.55;99158.03;4487777;31;20311;-83
2022/11/08 06:13:26;;;;;;;;;;;;;;;10.32;60.62;99164.44;4502102;31;19966;-83
2022/11/08 06:15:51;;;;;;;;;;;;;;;10.34;60.42;99160.81;4502010;31;19975;-82
2022/11/08 06:18:17;;;;;;;;;;;;;;;10.39;59.85;99164.09;4501886;31;19993;-83
2022/11/08 06:20:42;;;;;;;;;;;;;;;10.45;59.82;99164.69;4502067;31;19988;-81
2022/11/08 06:23:07;;;;;;;;;;;;;;;10.49;59.75;99167.12;4502004;31;20340;-81
2022/11/08 06:25:32;;;;;;;;;;;;;;;10.51;59.84;99167.06;4501922;31;20274;-81
2022/11/08 06:27:58;;;;;;;;;;;;;;;10.53;59.94;99173.09;4501913;31;19985;-83
2022/11/08 06:30:23;;;;;;;;;;;;;;;10.54;59.93;99172.16;4501930;31;19976;-82
2022/11/08 06:32:49;;;;;;;;;;;;;;;10.54;60.08;99172.16;4501832;31;20272;-87
2022/11/08 06:35:14;;;;;;;;;;;;;;;10.59;60.10;99172.81;4501571;31;19972;-84
2022/11/08 06:37:39;;;;;;;;;;;;;;;10.70;60.18;99177.53;4501815;31;19990;-86
2022/11/08 06:40:05;;;;;;;;;;;;;;;10.76;59.97;99175.47;4501786;31;19976;-85
2022/11/08 06:42:30;;;;;;;;;;;;;;;10.75;59.93;99183.44;4501214;31;19967;-81
2022/11/08 06:44:55;;;;;;;;;;;;;;;10.69;60.34;99181.97;4501597;31;20346;-82
2022/11/08 06:47:20;;;;;;;;;;;;;;;10.60;60.74;99175.38;4490762;31;19988;-81
2022/11/08 06:49:45;;;;;;;;;;;;;;;10.75;60.71;99184.28;4485768;32;19968;-81
2022/11/08 06:52:11;;;;;;;;;;;;;;;10.85;60.79;99183.84;4485287;32;20016;-81
2022/11/08 06:54:36;;;;;;;;;;;;;;;10.91;60.84;99187.00;4488231;31;19959;-81
2022/11/08 06:57:01;;;;;;;;;;;;;;;10.92;60.77;99188.72;4488034;32;20009;-83
2022/11/08 06:59:27;;;;;;;;;;;;;;;10.97;60.78;99191.13;4488158;31;19968;-82
2022/11/08 07:01:52;;;;;;;;;;;;;;;11.08;60.67;99198.50;4491059;31;19968;-83
2022/11/08 07:04:18;;;;;;;;;;;;;;;11.18;60.48;99192.72;4503910;31;19971;-82
2022/11/08 07:06:43;;;;;;;;;;;;;;;11.26;60.47;99188.81;4503588;31;20037;-80
2022/11/08 07:09:08;;;;;;;;;;;;;;;11.37;60.31;99184.69;4503819;31;20003;-80
2022/11/08 07:11:33;;;;;;;;;;;;;;;11.46;60.26;99193.94;4503866;31;19971;-82
2022/11/08 07:13:59;;;;;;;;;;;;;;;11.52;60.27;99196.25;4503784;31;20011;-81
2022/11/08 07:16:24;;;;;;;;;;;;;;;11.63;60.06;99194.81;4489331;31;19987;-80
2022/11/08 07:18:50;;;;;;;;;;;;;;;11.44;60.61;99190.53;4503809;31;20027;-78
2022/11/08 07:21:15;;;;;;;;;;;;;;;11.60;60.42;99194.06;4489515;31;19972;-77
2022/11/08 07:23:40;;;;;;;;;;;;;;;11.69;60.45;99192.72;4489349;31;19963;-81
2022/11/08 07:26:07;;;;;;;;;;;;;;;11.76;60.44;99186.22;4503607;31;19980;-82
2022/11/08 07:28:33;;;;;;;;;;;;;;;11.82;59.93;99192.94;4503721;31;19988;-84
2022/11/08 07:30:59;;;;;;;;;;;;;;;11.80;60.40;99198.31;4503581;31;20269;-86
2022/11/08 07:33:24;;;;;;;;;;;;;;;11.92;60.53;99204.75;4503513;31;20326;-89
2022/11/08 07:35:49;;;;;;;;;;;;;;;12.06;60.10;99204.00;4502141;31;20055;-83
2022/11/08 07:38:15;;;;;;;;;;;;;;;12.15;60.10;99208.78;4503657;31;19979;-86
2022/11/08 07:40:40;;;;;;;;;;;;;;;12.25;60.04;99201.22;4503660;31;19987;-84
2022/11/08 07:43:05;;;;;;;;;;;;;;;12.36;59.98;99208.53;4503555;31;20016;-83
2022/11/08 07:45:30;;;;;;;;;;;;;;;12.49;59.69;99195.50;4500073;31;19995;-81
2022/11/08 07:47:59;;;;;;;;;;;;;;;12.58;59.61;99202.94;4486131;31;19991;-83
2022/11/08 07:50:25;;;;;;;;;;;;;;;12.70;59.21;99199.56;4492367;31;20722;-87
2022/11/08 07:52:50;;;;;;;;;;;;;;;12.75;59.06;99200.19;4475007;31;21777;-85
2022/11/08 07:55:16;;;;;;;;;;;;;;;12.73;59.21;99201.22;4462557;31;19995;-85
2022/11/08 07:57:41;;;;;;;;;;;;;;;12.80;58.87;99199.91;4486888;31;20349;-85
2022/11/08 08:00:07;;;;;;;;;;;;;;;12.71;59.28;99203.06;4486555;31;20120;-84
2022/11/08 08:02:32;;;;;;;;;;;;;;;12.85;59.26;99195.22;4486383;31;20268;-84
2022/11/08 08:04:57;;;;;;;;;;;;;;;12.98;59.06;99198.00;4486357;31;20019;-85
2022/11/08 08:07:23;;;;;;;;;;;;;;;13.12;58.73;99192.75;4487139;31;19999;-85
2022/11/08 08:09:48;;;;;;;;;;;;;;;13.21;58.29;99195.81;4485572;31;20015;-85
2022/11/08 08:12:13;;;;;;;;;;;;;;;13.35;58.03;99201.19;4478782;31;21412;-86
2022/11/08 08:14:38;;;;;;;;;;;;;;;13.43;58.11;99192.78;4486284;31;20051;-86
2022/11/08 08:17:03;;;;;;;;;;;;;;;13.57;58.29;99196.28;4490185;31;20006;-84
2022/11/08 08:19:29;;;;;;;;;;;;;;;13.66;57.85;99200.19;4485635;31;20049;-87
2022/11/08 08:21:54;;;;;;;;;;;;;;;13.71;57.54;99205.19;4485553;31;20017;-82
2022/11/08 08:24:19;;;;;;;;;;;;;;;13.79;57.23;99199.41;4489190;31;20065;-87
2022/11/08 08:26:44;;;;;;;;;;;;;;;13.86;57.28;99196.31;4485701;31;20441;-87
2022/11/08 08:29:10;;;;;;;;;;;;;;;13.97;57.20;99193.00;4484086;31;19983;-88
2022/11/08 08:31:35;;;;;;;;;;;;;;;14.06;56.76;99189.78;4484008;31;20016;-87
2022/11/08 08:34:00;;;;;;;;;;;;;;;14.07;56.81;99190.63;4487750;31;19999;-87
2022/11/08 08:36:25;;;;;;;;;;;;;;;14.07;56.07;99185.34;4485890;31;20023;-85
2022/11/08 08:38:51;;;;;;;;;;;;;;;14.10;56.15;99190.44;4487387;31;20026;-87
2022/11/08 08:41:16;;;;;;;;;;;;;;;14.13;56.17;99193.75;4486651;31;20283;-88
2022/11/08 08:43:41;;;;;;;;;;;;;;;14.19;55.90;99197.81;4475507;31;20008;-87
2022/11/08 08:46:07;;;;;;;;;;;;;;;14.12;55.59;99200.00;4490081;31;19975;-88
2022/11/08 08:48:32;;;;;;;;;;;;;;;14.00;55.86;99210.50;4485641;31;20011;-88
2022/11/08 08:50:57;;;;;;;;;;;;;;;13.47;56.50;99205.72;4485521;31;20004;-87
2022/11/08 08:53:23;;;;;;;;;;;;;;;13.87;56.23;99205.97;4478227;31;20027;-85
2022/11/08 08:55:51;;;;;;;;;;;;;;;13.68;56.72;99213.34;4477301;31;20008;-88
2022/11/08 08:58:17;;;;;;;;;;;;;;;13.81;56.42;99218.72;4484554;31;20000;-88
2022/11/08 09:00:42;;;;;;;;;;;;;;;13.89;56.75;99224.41;4486126;31;19983;-85
2022/11/08 09:03:08;;;;;;;;;;;;;;;13.96;56.59;99220.44;4475026;31;20027;-87
2022/11/08 09:05:33;;;;;;;;;;;;;;;14.00;56.51;99221.09;4485930;31;20255;-86
2022/11/08 09:07:59;;;;;;;;;;;;;;;14.09;56.46;99226.66;4488811;31;19984;-88
2022/11/08 09:10:24;;;;;;;;;;;;;;;14.19;56.33;99229.59;4486959;31;20021;-93
2022/11/08 09:12:49;;;;;;;;;;;;;;;14.19;56.04;99226.94;4485782;31;20068;-85
2022/11/08 09:15:15;;;;;;;;;;;;;;;14.23;56.12;99228.44;4483407;31;20379;-84
2022/11/08 09:17:40;;;;;;;;;;;;;;;14.35;56.35;99230.34;4485695;31;19971;-86
2022/11/08 09:20:05;;;;;;;;;;;;;;;14.46;56.18;99234.13;4484531;31;19976;-85
2022/11/08 09:22:31;;;;;;;;;;;;;;;14.53;56.25;99240.75;4487372;31;20377;-85
2022/11/08 09:24:56;;;;;;;;;;;;;;;14.28;56.01;99244.94;4485459;31;21281;-86
2022/11/08 09:27:22;;;;;;;;;;;;;;;14.40;55.93;99243.31;4486668;31;20015;-86
2022/11/08 09:29:47;;;;;;;;;;;;;;;14.40;55.74;99235.34;4485695;31;20010;-86
2022/11/08 09:32:12;;;;;;;;;;;;;;;14.40;55.85;99239.81;4484430;31;20022;-85
2022/11/08 09:34:37;;;;;;;;;;;;;;;14.23;56.20;99240.88;4486295;31;20319;-84
2022/11/08 09:37:03;;;;;;;;;;;;;;;14.14;56.83;99237.84;4484591;31;20016;-84
2022/11/08 09:39:28;;;;;;;;;;;;;;;14.07;57.04;99238.31;4485349;31;20003;-84
2022/11/08 09:42:12;;;;;;;;;;;;;;;14.21;56.54;99240.94;4484845;31;20030;-82
2022/11/08 09:44:49;;;;;;;;;;;;;;;14.24;56.71;99234.62;4487039;31;20327;-82
2022/11/08 09:47:19;;;;;;;;;;;;;;;14.34;57.16;99228.63;4478877;31;19991;-83
2022/11/08 09:49:46;;;;;;;;;;;;;;;14.31;57.15;99231.50;4477248;31;20007;-82
2022/11/08 09:52:15;;;;;;;;;;;;;;;14.24;57.20;99237.28;4478690;31;20355;-81
2022/11/08 09:54:41;;;;;;;;;;;;;;;14.24;56.78;99229.34;4476001;31;20010;-83
2022/11/08 09:57:10;;;;;;;;;;;;;;;13.80;57.97;99238.22;4473990;31;20331;-82
2022/11/08 09:59:36;;;;;;;;;;;;;;;14.32;56.92;99235.84;4475996;31;20002;-82
2022/11/08 10:02:01;;;;;;;;;;;;;;;14.40;56.34;99237.16;4476281;31;20039;-82
2022/11/08 10:04:27;;;;;;;;;;;;;;;14.50;56.04;99230.31;4484600;31;20059;-82
2022/11/08 10:06:53;;;;;;;;;;;;;;;14.38;56.24;99231.09;4464478;31;19987;-82
2022/11/08 10:09:24;;;;;;;;;;;;;;;14.50;56.44;99233.81;4485711;31;19983;-81
2022/11/08 10:11:56;;;;;;;;;;;;;;;14.64;56.20;99229.47;4475605;31;20045;-81
2022/11/08 10:14:24;;;;;;;;;;;;;;;14.77;56.12;99218.94;4477590;31;20003;-81
2022/11/08 10:17:08;;;;;;;;;;;;;;;14.88;55.96;99219.94;4484055;31;20495;-82
2022/11/08 10:19:42;;;;;;;;;;;;;;;14.96;55.71;99210.63;4490050;31;20349;-82
2022/11/08 10:22:10;;;;;;;;;;;;;;;15.05;55.32;99208.22;4484848;31;19984;-82
2022/11/08 10:24:56;;;;;;;;;;;;;;;15.04;55.37;99208.31;4485354;31;20302;-81
2022/11/08 10:27:32;;;;;;;;;;;;;;;15.01;55.74;99211.16;4475443;31;20141;-81
2022/11/08 10:29:59;;;;;;;;;;;;;;;14.97;55.73;99210.53;4479327;31;20007;-81
2022/11/08 10:32:24;;;;;;;;;;;;;;;14.92;56.21;99207.31;4478922;31;20006;-82
2022/11/08 10:34:54;;;;;;;;;;;;;;;14.91;56.11;99205.59;4478045;31;20282;-83
2022/11/08 10:37:19;;;;;;;;;;;;;;;14.86;56.08;99200.59;4480273;31;20024;-81
2022/11/08 10:39:49;;;;;;;;;;;;;;;14.84;56.10;99197.22;4479997;31;20005;-82
2022/11/08 10:42:23;;;;;;;;;;;;;;;14.90;56.22;99198.59;4476336;31;20047;-82
2022/11/08 10:44:48;;;;;;;;;;;;;;;14.87;56.25;99196.16;4488130;31;20066;-83
2022/11/08 10:47:21;;;;;;;;;;;;;;;14.72;56.28;99188.25;4478890;31;20019;-83
2022/11/08 10:49:46;;;;;;;;;;;;;;;14.64;56.55;99192.34;4477022;31;19976;-84
2022/11/08 10:52:11;;;;;;;;;;;;;;;14.46;57.12;99189.06;4486472;31;20064;-87
2022/11/08 10:54:52;;;;;;;;;;;;;;;14.46;57.70;99189.06;4488433;31;20059;-86
2022/11/08 10:57:30;;;;;;;;;;;;;;;14.44;57.61;99188.31;4488882;31;19998;-86
2022/11/08 10:59:55;;;;;;;;;;;;;;;14.06;58.80;99186.28;4486651;31;19984;-80
2022/11/08 11:02:21;;;;;;;;;;;;;;;14.11;58.77;99200.09;4486805;31;20283;-82
2022/11/08 11:04:46;;;;;;;;;;;;;;;13.98;59.44;99188.56;4479145;31;20290;-82
2022/11/08 11:07:24;;;;;;;;;;;;;;;13.84;59.70;99192.06;4478954;31;20139;-82
2022/11/08 11:09:49;;;;;;;;;;;;;;;14.00;59.31;99190.16;4486208;31;20013;-82
2022/11/08 11:12:14;;;;;;;;;;;;;;;13.56;60.30;99191.94;4478777;31;20011;-82
2022/11/08 11:14:40;;;;;;;;;;;;;;;13.97;58.93;99193.00;4477885;31;20003;-83
2022/11/08 11:17:15;;;;;;;;;;;;;;;13.85;58.92;99189.31;4486824;31;19987;-82
2022/11/08 11:20:00;;;;;;;;;;;;;;;14.02;58.64;99187.41;4462414;31;20305;-82
2022/11/08 11:22:25;;;;;;;;;;;;;;;14.02;58.63;99187.41;4484924;31;20022;-83
2022/11/08 11:24:51;;;;;;;;;;;;;;;14.01;58.73;99189.22;4491837;31;19984;-82
2022/11/08 11:27:22;;;;;;;;;;;;;;;13.91;58.90;99188.94;4479242;31;20023;-87
2022/11/08 11:29:47;;;;;;;;;;;;;;;13.69;59.58;99191.19;4490019;31;20041;-83
2022/11/08 11:32:32;;;;;;;;;;;;;;;13.63;60.13;99180.97;4489096;31;20004;-83
2022/11/08 11:34:58;;;;;;;;;;;;;;;13.88;60.01;99182.97;4476927;31;19991;-82
2022/11/08 11:37:28;;;;;;;;;;;;;;;13.98;60.01;99176.16;4464797;31;19988;-80
2022/11/08 11:40:06;;;;;;;;;;;;;;;14.02;59.99;99177.66;4485262;31;20297;-78
2022/11/08 11:42:43;;;;;;;;;;;;;;;14.00;60.01;99184.00;4475728;31;20027;-80
2022/11/08 11:45:10;;;;;;;;;;;;;;;14.08;59.75;99182.59;4477656;31;20013;-81
2022/11/08 11:47:40;;;;;;;;;;;;;;;13.89;60.57;99171.44;4476801;31;19976;-81
2022/11/08 11:50:11;;;;;;;;;;;;;;;14.09;59.82;99180.78;4477766;31;20021;-81
2022/11/08 11:52:36;;;;;;;;;;;;;;;14.13;59.60;99175.19;4476192;31;19996;-80
2022/11/08 11:55:02;;;;;;;;;;;;;;;14.18;59.37;99169.63;4478110;31;20024;-80
2022/11/08 11:57:36;;;;;;;;;;;;;;;14.18;59.45;99172.28;4486330;31;19984;-81
2022/11/08 12:00:08;;;;;;;;;;;;;;;14.07;59.71;99169.44;4477068;31;19998;-80
2022/11/08 12:02:52;;;;;;;;;;;;;;;14.13;59.78;99166.41;4477320;31;19984;-81
2022/11/08 12:05:23;;;;;;;;;;;;;;;14.00;60.32;99165.47;4485694;31;20010;-80
2022/11/08 12:07:50;;;;;;;;;;;;;;;14.02;60.58;99169.72;4487601;31;20002;-80
2022/11/08 12:10:15;;;;;;;;;;;;;;;13.97;60.97;99161.22;4476957;31;20003;-81
2022/11/08 12:12:46;;;;;;;;;;;;;;;14.06;60.63;99150.06;4486237;31;19999;-80
2022/11/08 12:15:30;;;;;;;;;;;;;;;13.98;60.94;99152.31;4486435;31;20036;-79
2022/11/08 12:18:14;;;;;;;;;;;;;;;13.89;61.79;99148.47;4488954;31;20006;-80
2022/11/08 12:20:48;;;;;;;;;;;;;;;13.98;61.49;99140.88;4489899;31;20035;-80
2022/11/08 12:23:20;;;;;;;;;;;;;;;13.92;61.70;99147.41;4486344;31;20038;-85
2022/11/08 12:25:48;;;;;;;;;;;;;;;13.83;62.22;99147.97;4486412;31;19980;-85
2022/11/08 12:28:13;;;;;;;;;;;;;;;13.89;62.13;99143.16;4478746;31;19987;-80
2022/11/08 12:30:45;;;;;;;;;;;;;;;14.09;61.59;99135.75;4487262;31;20339;-81
2022/11/08 12:33:13;;;;;;;;;;;;;;;14.18;61.64;99134.31;4479710;31;19972;-81
2022/11/08 12:36:11;;;;;;;;;;;;;;;14.30;61.55;99134.38;4488693;31;19989;-81
2022/11/08 12:38:38;;;;;;;;;;;;;;;14.39;61.43;99129.41;4430563;32;20008;-81
2022/11/08 12:41:06;;;;;;;;;;;;;;;14.49;61.38;99127.91;4416913;32;20515;-80
2022/11/08 12:43:43;;;;;;;;;;;;;;;14.46;61.36;99126.28;4432316;32;19993;-80
2022/11/08 12:46:11;;;;;;;;;;;;;;;14.51;61.37;99128.66;4430146;32;19996;-81
2022/11/08 12:48:39;;;;;;;;;;;;;;;14.57;61.26;99128.28;4392868;32;19977;-80
2022/11/08 12:51:07;;;;;;;;;;;;;;;14.63;61.15;99132.31;4429685;32;19976;-81
2022/11/08 12:53:33;;;;;;;;;;;;;;;14.67;60.93;99123.22;4404419;32;20012;-80
2022/11/08 12:55:58;;;;;;;;;;;;;;;14.66;60.97;99130.31;4422442;32;20285;-81
2022/11/08 12:58:35;;;;;;;;;;;;;;;14.66;60.93;99126.78;4417469;32;20043;-82
2022/11/08 13:01:02;;;;;;;;;;;;;;;14.62;61.12;99126.19;4421300;32;19997;-80
2022/11/08 13:03:27;;;;;;;;;;;;;;;14.61;61.32;99116.50;4408203;32;20377;-82
2022/11/08 13:05:57;;;;;;;;;;;;;;;14.65;61.51;99125.97;4423686;32;20032;-81
2022/11/08 13:08:30;;;;;;;;;;;;;;;14.66;61.63;99125.03;4413063;32;20008;-81